createdAt,value
2017-03-17T00:00:13.022Z,4.8
2017-03-17T00:00:31.658Z,4.8
2017-03-17T00:00:50.285Z,4.8
2017-03-17T00:01:08.910Z,4.8
2017-03-17T00:01:27.538Z,4.8
2017-03-17T00:01:46.168Z,4.7
2017-03-17T00:02:04.794Z,4.7
2017-03-17T00:02:23.455Z,4.7
2017-03-17T00:02:42.081Z,4.7
2017-03-17T00:03:00.710Z,4.7
2017-03-17T00:03:19.337Z,4.7
2017-03-17T00:03:37.965Z,4.6
2017-03-17T00:03:56.598Z,4.6
2017-03-17T00:04:15.236Z,4.6
2017-03-17T00:04:33.860Z,4.6
2017-03-17T00:04:52.492Z,4.6
2017-03-17T00:05:11.121Z,4.6
2017-03-17T00:05:29.746Z,4.6
2017-03-17T00:05:48.413Z,4.6
2017-03-17T00:06:07.037Z,4.6
2017-03-17T00:06:25.667Z,4.6
2017-03-17T00:06:44.297Z,4.6
2017-03-17T00:07:02.921Z,4.6
2017-03-17T00:07:21.545Z,4.6
2017-03-17T00:07:40.185Z,4.6
2017-03-17T00:07:58.804Z,4.6
2017-03-17T00:08:17.450Z,4.6
2017-03-17T00:08:36.080Z,4.7
2017-03-17T00:08:54.707Z,4.7
2017-03-17T00:09:13.335Z,4.7
2017-03-17T00:09:31.964Z,4.7
2017-03-17T00:09:50.589Z,4.8
2017-03-17T00:10:09.215Z,4.8
2017-03-17T00:10:27.843Z,4.8
2017-03-17T00:10:46.472Z,4.8
2017-03-17T00:11:05.123Z,4.8
2017-03-17T00:11:23.750Z,4.9
2017-03-17T00:11:42.384Z,4.9
2017-03-17T00:12:01.012Z,4.9
2017-03-17T00:12:19.639Z,4.9
2017-03-17T00:12:38.269Z,4.9
2017-03-17T00:12:56.894Z,4.9
2017-03-17T00:13:15.522Z,4.9
2017-03-17T00:13:34.170Z,4.9
2017-03-17T00:13:52.798Z,4.9
2017-03-17T00:14:11.429Z,4.8
2017-03-17T00:14:30.082Z,4.8
2017-03-17T00:14:48.714Z,4.8
2017-03-17T00:15:07.347Z,4.8
2017-03-17T00:15:25.972Z,4.8
2017-03-17T00:15:44.597Z,4.7
2017-03-17T00:16:03.222Z,4.7
2017-03-17T00:16:21.849Z,4.7
2017-03-17T00:16:40.478Z,4.7
2017-03-17T00:16:59.114Z,4.7
2017-03-17T00:17:17.746Z,4.7
2017-03-17T00:17:36.377Z,4.7
2017-03-17T00:17:55.027Z,4.7
2017-03-17T00:18:13.656Z,4.8
2017-03-17T00:18:32.288Z,4.7
2017-03-17T00:18:50.922Z,4.7
2017-03-17T00:19:09.549Z,4.7
2017-03-17T00:19:28.172Z,4.7
2017-03-17T00:19:46.801Z,4.7
2017-03-17T00:20:05.432Z,4.7
2017-03-17T00:20:24.062Z,4.6
2017-03-17T00:20:42.690Z,4.6
2017-03-17T00:21:01.317Z,4.6
2017-03-17T00:21:19.975Z,4.6
2017-03-17T00:21:38.600Z,4.6
2017-03-17T00:21:57.227Z,4.6
2017-03-17T00:22:15.860Z,4.6
2017-03-17T00:22:34.482Z,4.6
2017-03-17T00:22:53.118Z,4.5
2017-03-17T00:23:11.743Z,4.5
2017-03-17T00:23:30.370Z,4.5
2017-03-17T00:23:48.997Z,4.5
2017-03-17T00:24:07.643Z,4.5
2017-03-17T00:24:26.268Z,4.5
2017-03-17T00:24:44.926Z,4.4
2017-03-17T00:25:03.552Z,4.4
2017-03-17T00:25:22.182Z,4.4
2017-03-17T00:25:40.807Z,4.4
2017-03-17T00:25:59.433Z,4.4
2017-03-17T00:26:18.070Z,4.3
2017-03-17T00:26:36.701Z,4.3
2017-03-17T00:26:55.329Z,4.3
2017-03-17T00:27:13.962Z,4.2
2017-03-17T00:27:32.592Z,4.2
2017-03-17T00:27:51.217Z,4.2
2017-03-17T00:28:09.866Z,4.2
2017-03-17T00:28:28.493Z,4.2
2017-03-17T00:28:47.143Z,4.2
2017-03-17T00:29:05.776Z,4.2
2017-03-17T00:29:24.413Z,4.3
2017-03-17T00:29:43.047Z,4.3
2017-03-17T00:30:01.680Z,4.3
2017-03-17T00:30:20.309Z,4.3
2017-03-17T00:30:38.929Z,4.2
2017-03-17T00:30:57.552Z,4.2
2017-03-17T00:31:16.181Z,4.3
2017-03-17T00:31:34.836Z,4.3
2017-03-17T00:31:53.463Z,4.3
2017-03-17T00:32:12.090Z,4.3
2017-03-17T00:32:30.713Z,4.3
2017-03-17T00:32:49.343Z,4.3
2017-03-17T00:33:07.972Z,4.3
2017-03-17T00:33:26.598Z,4.3
2017-03-17T00:33:45.224Z,4.2
2017-03-17T00:34:03.853Z,4.2
2017-03-17T00:34:22.473Z,4.3
2017-03-17T00:34:41.128Z,4.3
2017-03-17T00:34:59.774Z,4.3
2017-03-17T00:35:18.399Z,4.3
2017-03-17T00:35:37.025Z,4.3
2017-03-17T00:35:55.651Z,4.3
2017-03-17T00:36:14.283Z,4.3
2017-03-17T00:36:32.909Z,4.3
2017-03-17T00:36:51.533Z,4.4
2017-03-17T00:37:10.164Z,4.4
2017-03-17T00:37:28.790Z,4.4
2017-03-17T00:37:47.417Z,4.4
2017-03-17T00:38:06.046Z,4.4
2017-03-17T00:38:24.683Z,4.4
2017-03-17T00:38:43.347Z,4.4
2017-03-17T00:39:01.971Z,4.4
2017-03-17T00:39:20.596Z,4.3
2017-03-17T00:39:39.225Z,4.3
2017-03-17T00:39:57.867Z,4.3
2017-03-17T00:40:16.493Z,4.3
2017-03-17T00:40:35.117Z,4.3
2017-03-17T00:40:53.747Z,4.3
2017-03-17T00:41:12.382Z,4.3
2017-03-17T00:41:31.014Z,4.3
2017-03-17T00:41:49.646Z,4.3
2017-03-17T00:42:08.309Z,4.3
2017-03-17T00:42:26.938Z,4.3
2017-03-17T00:42:45.571Z,4.2
2017-03-17T00:43:04.199Z,4.2
2017-03-17T00:43:22.834Z,4.2
2017-03-17T00:43:41.462Z,4.2
2017-03-17T00:44:00.114Z,4.1
2017-03-17T00:44:18.739Z,4.1
2017-03-17T00:44:37.368Z,4.1
2017-03-17T00:44:55.998Z,4.1
2017-03-17T00:45:14.644Z,4.1
2017-03-17T00:45:33.307Z,4.1
2017-03-17T00:45:51.938Z,4.1
2017-03-17T00:46:10.567Z,4.1
2017-03-17T00:46:29.193Z,4.1
2017-03-17T00:46:47.826Z,4.1
2017-03-17T00:47:06.453Z,4.1
2017-03-17T00:47:25.083Z,4.1
2017-03-17T00:47:43.708Z,4.1
2017-03-17T00:48:02.332Z,4.1
2017-03-17T00:48:20.958Z,4.1
2017-03-17T00:48:39.583Z,4.1
2017-03-17T00:48:58.234Z,4.1
2017-03-17T00:49:16.858Z,4
2017-03-17T00:49:35.486Z,4
2017-03-17T00:49:54.114Z,4
2017-03-17T00:50:12.736Z,4
2017-03-17T00:50:31.365Z,4
2017-03-17T00:50:50.012Z,4
2017-03-17T00:51:08.639Z,3.9
2017-03-17T00:51:27.268Z,3.9
2017-03-17T00:51:45.897Z,3.9
2017-03-17T00:52:04.523Z,3.9
2017-03-17T00:52:23.145Z,3.9
2017-03-17T00:52:41.771Z,3.9
2017-03-17T00:53:00.397Z,3.9
2017-03-17T00:53:19.028Z,3.9
2017-03-17T00:53:37.658Z,3.9
2017-03-17T00:53:56.282Z,3.9
2017-03-17T00:54:14.936Z,3.9
2017-03-17T00:54:33.560Z,3.9
2017-03-17T00:54:52.191Z,3.8
2017-03-17T00:55:10.823Z,3.8
2017-03-17T00:55:29.447Z,3.8
2017-03-17T00:55:48.108Z,3.8
2017-03-17T00:56:06.736Z,3.8
2017-03-17T00:56:25.372Z,3.8
2017-03-17T00:56:43.996Z,3.8
2017-03-17T00:57:02.623Z,3.8
2017-03-17T00:57:21.254Z,3.9
2017-03-17T00:57:39.910Z,3.9
2017-03-17T00:57:58.539Z,3.9
2017-03-17T00:58:17.168Z,3.9
2017-03-17T00:58:35.794Z,3.9
2017-03-17T00:58:54.422Z,4
2017-03-17T00:59:13.066Z,3.9
2017-03-17T00:59:31.693Z,3.9
2017-03-17T00:59:50.316Z,3.9
2017-03-17T01:00:08.937Z,3.9
2017-03-17T01:00:27.564Z,3.9
2017-03-17T01:00:46.192Z,3.9
2017-03-17T01:01:04.854Z,3.9
2017-03-17T01:01:23.482Z,3.9
2017-03-17T01:01:42.108Z,3.9
2017-03-17T01:02:00.740Z,3.9
2017-03-17T01:02:19.365Z,3.9
2017-03-17T01:02:37.997Z,3.9
2017-03-17T01:02:56.626Z,3.9
2017-03-17T01:03:15.252Z,3.9
2017-03-17T01:03:33.912Z,3.9
2017-03-17T01:03:52.545Z,3.9
2017-03-17T01:04:11.180Z,3.9
2017-03-17T01:04:29.841Z,3.9
2017-03-17T01:04:48.467Z,3.9
2017-03-17T01:05:07.091Z,3.9
2017-03-17T01:05:25.718Z,3.9
2017-03-17T01:05:44.345Z,3.9
2017-03-17T01:06:02.981Z,3.9
2017-03-17T01:06:21.632Z,3.9
2017-03-17T01:06:40.262Z,3.8
2017-03-17T01:06:58.898Z,3.8
2017-03-17T01:07:17.556Z,3.8
2017-03-17T01:07:36.186Z,3.8
2017-03-17T01:07:54.839Z,3.8
2017-03-17T01:08:13.466Z,3.8
2017-03-17T01:08:32.095Z,3.8
2017-03-17T01:08:50.722Z,3.9
2017-03-17T01:09:09.346Z,3.9
2017-03-17T01:09:27.978Z,3.9
2017-03-17T01:09:46.607Z,3.9
2017-03-17T01:10:05.238Z,3.9
2017-03-17T01:10:23.865Z,3.9
2017-03-17T01:10:42.494Z,3.9
2017-03-17T01:11:01.123Z,3.9
2017-03-17T01:11:19.773Z,3.9
2017-03-17T01:11:38.417Z,3.9
2017-03-17T01:11:57.054Z,3.9
2017-03-17T01:12:15.684Z,3.8
2017-03-17T01:12:34.313Z,3.8
2017-03-17T01:12:52.939Z,3.8
2017-03-17T01:13:11.565Z,3.8
2017-03-17T01:13:30.195Z,3.8
2017-03-17T01:13:48.825Z,3.7
2017-03-17T01:14:07.458Z,3.7
2017-03-17T01:14:26.089Z,3.7
2017-03-17T01:14:44.739Z,3.7
2017-03-17T01:15:03.366Z,3.7
2017-03-17T01:15:21.994Z,3.7
2017-03-17T01:15:40.625Z,3.7
2017-03-17T01:15:59.258Z,3.7
2017-03-17T01:16:17.886Z,3.6
2017-03-17T01:16:36.516Z,3.6
2017-03-17T01:16:55.167Z,3.6
2017-03-17T01:17:13.794Z,3.6
2017-03-17T01:17:32.420Z,3.6
2017-03-17T01:17:51.047Z,3.6
2017-03-17T01:18:09.701Z,3.6
2017-03-17T01:18:28.330Z,3.6
2017-03-17T01:18:46.959Z,3.6
2017-03-17T01:19:05.587Z,3.7
2017-03-17T01:19:24.210Z,3.6
2017-03-17T01:19:42.837Z,3.6
2017-03-17T01:20:01.470Z,3.6
2017-03-17T01:20:20.102Z,3.6
2017-03-17T01:20:38.735Z,3.6
2017-03-17T01:20:57.356Z,3.6
2017-03-17T01:21:15.983Z,3.6
2017-03-17T01:21:34.636Z,3.6
2017-03-17T01:21:53.261Z,3.6
2017-03-17T01:22:11.905Z,3.6
2017-03-17T01:22:30.539Z,3.6
2017-03-17T01:22:49.170Z,3.6
2017-03-17T01:23:07.806Z,3.6
2017-03-17T01:23:26.436Z,3.6
2017-03-17T01:23:45.062Z,3.7
2017-03-17T01:24:03.688Z,3.6
2017-03-17T01:24:22.315Z,3.7
2017-03-17T01:24:40.947Z,3.7
2017-03-17T01:24:59.597Z,3.7
2017-03-17T01:25:18.226Z,3.7
2017-03-17T01:25:36.852Z,3.6
2017-03-17T01:25:55.480Z,3.6
2017-03-17T01:26:14.105Z,3.6
2017-03-17T01:26:32.738Z,3.6
2017-03-17T01:26:51.365Z,3.6
2017-03-17T01:27:09.995Z,3.6
2017-03-17T01:27:28.634Z,3.6
2017-03-17T01:27:47.261Z,3.5
2017-03-17T01:28:05.894Z,3.5
2017-03-17T01:28:24.543Z,3.6
2017-03-17T01:28:43.174Z,3.6
2017-03-17T01:29:01.801Z,3.6
2017-03-17T01:29:20.426Z,3.6
2017-03-17T01:29:39.079Z,3.6
2017-03-17T01:29:57.709Z,3.6
2017-03-17T01:30:16.335Z,3.6
2017-03-17T01:30:34.965Z,3.6
2017-03-17T01:30:53.591Z,3.7
2017-03-17T01:31:12.227Z,3.7
2017-03-17T01:31:30.854Z,3.7
2017-03-17T01:31:49.494Z,3.7
2017-03-17T01:32:08.136Z,3.7
2017-03-17T01:32:26.768Z,3.7
2017-03-17T01:32:45.421Z,3.6
2017-03-17T01:33:04.053Z,3.7
2017-03-17T01:33:22.681Z,3.7
2017-03-17T01:33:41.309Z,3.7
2017-03-17T01:33:59.940Z,3.7
2017-03-17T01:34:18.567Z,3.7
2017-03-17T01:34:37.191Z,3.7
2017-03-17T01:34:55.818Z,3.7
2017-03-17T01:35:14.454Z,3.7
2017-03-17T01:35:33.109Z,3.7
2017-03-17T01:35:51.737Z,3.7
2017-03-17T01:36:10.370Z,3.7
2017-03-17T01:36:28.996Z,3.7
2017-03-17T01:36:47.622Z,3.7
2017-03-17T01:37:06.245Z,3.7
2017-03-17T01:37:24.866Z,3.7
2017-03-17T01:37:43.500Z,3.7
2017-03-17T01:38:02.134Z,3.7
2017-03-17T01:38:20.762Z,3.7
2017-03-17T01:38:39.389Z,3.7
2017-03-17T01:38:58.047Z,3.7
2017-03-17T01:39:16.677Z,3.7
2017-03-17T01:39:35.303Z,3.7
2017-03-17T01:39:53.932Z,3.7
2017-03-17T01:40:12.564Z,3.7
2017-03-17T01:40:31.189Z,3.7
2017-03-17T01:40:49.827Z,3.7
2017-03-17T01:41:08.455Z,3.7
2017-03-17T01:41:27.090Z,3.7
2017-03-17T01:41:45.717Z,3.7
2017-03-17T01:42:04.341Z,3.7
2017-03-17T01:42:23.006Z,3.8
2017-03-17T01:42:41.630Z,3.8
2017-03-17T01:43:00.263Z,3.8
2017-03-17T01:43:18.916Z,3.8
2017-03-17T01:43:37.544Z,3.8
2017-03-17T01:43:56.169Z,3.9
2017-03-17T01:44:14.811Z,3.9
2017-03-17T01:44:33.440Z,3.9
2017-03-17T01:44:52.090Z,3.9
2017-03-17T01:45:10.714Z,3.9
2017-03-17T01:45:29.339Z,3.9
2017-03-17T01:45:48.004Z,3.9
2017-03-17T01:46:06.632Z,3.9
2017-03-17T01:46:25.258Z,3.9
2017-03-17T01:46:43.885Z,3.9
2017-03-17T01:47:02.511Z,3.9
2017-03-17T01:47:21.144Z,3.8
2017-03-17T01:47:39.786Z,3.8
2017-03-17T01:47:58.415Z,3.8
2017-03-17T01:48:17.041Z,3.9
2017-03-17T01:48:35.673Z,3.9
2017-03-17T01:48:54.302Z,3.8
2017-03-17T01:49:12.958Z,3.8
2017-03-17T01:49:31.584Z,3.8
2017-03-17T01:49:50.211Z,3.8
2017-03-17T01:50:08.835Z,3.8
2017-03-17T01:50:27.460Z,3.8
2017-03-17T01:50:46.090Z,3.8
2017-03-17T01:51:04.742Z,3.8
2017-03-17T01:51:23.379Z,3.7
2017-03-17T01:51:42.009Z,3.7
2017-03-17T01:52:00.641Z,3.7
2017-03-17T01:52:19.271Z,3.8
2017-03-17T01:52:37.904Z,3.8
2017-03-17T01:52:56.530Z,3.8
2017-03-17T01:53:15.159Z,3.8
2017-03-17T01:53:33.789Z,3.7
2017-03-17T01:53:52.446Z,3.7
2017-03-17T01:54:11.073Z,3.7
2017-03-17T01:54:29.728Z,3.7
2017-03-17T01:54:48.353Z,3.7
2017-03-17T01:55:06.976Z,3.7
2017-03-17T01:55:25.605Z,3.7
2017-03-17T01:55:44.226Z,3.7
2017-03-17T01:56:02.855Z,3.7
2017-03-17T01:56:21.483Z,3.7
2017-03-17T01:56:40.108Z,3.7
2017-03-17T01:56:58.735Z,3.7
2017-03-17T01:57:17.360Z,3.7
2017-03-17T01:57:35.985Z,3.7
2017-03-17T01:57:54.642Z,3.7
2017-03-17T01:58:13.268Z,3.7
2017-03-17T01:58:31.894Z,3.7
2017-03-17T01:58:50.522Z,3.7
2017-03-17T01:59:09.163Z,3.6
2017-03-17T01:59:27.787Z,3.6
2017-03-17T01:59:46.411Z,3.6
2017-03-17T02:00:05.046Z,3.6
2017-03-17T02:00:23.676Z,3.6
2017-03-17T02:00:42.306Z,3.6
2017-03-17T02:01:00.937Z,3.6
2017-03-17T02:01:19.589Z,3.7
2017-03-17T02:01:38.218Z,3.7
2017-03-17T02:01:56.845Z,3.6
2017-03-17T02:02:15.469Z,3.6
2017-03-17T02:02:34.092Z,3.6
2017-03-17T02:02:52.722Z,3.6
2017-03-17T02:03:11.347Z,3.6
2017-03-17T02:03:29.973Z,3.6
2017-03-17T02:03:48.600Z,3.6
2017-03-17T02:04:07.227Z,3.6
2017-03-17T02:04:25.879Z,3.6
2017-03-17T02:04:44.561Z,3.6
2017-03-17T02:05:03.197Z,3.6
2017-03-17T02:05:21.827Z,3.6
2017-03-17T02:05:40.454Z,3.6
2017-03-17T02:05:59.081Z,3.6
2017-03-17T02:06:17.706Z,3.6
2017-03-17T02:06:36.326Z,3.6
2017-03-17T02:06:54.957Z,3.6
2017-03-17T02:07:13.584Z,3.6
2017-03-17T02:07:32.210Z,3.5
2017-03-17T02:07:50.837Z,3.5
2017-03-17T02:08:09.487Z,3.5
2017-03-17T02:08:28.114Z,3.6
2017-03-17T02:08:46.741Z,3.6
2017-03-17T02:09:05.366Z,3.5
2017-03-17T02:09:23.991Z,3.6
2017-03-17T02:09:42.639Z,3.6
2017-03-17T02:10:01.269Z,3.6
2017-03-17T02:10:19.897Z,3.6
2017-03-17T02:10:38.523Z,3.6
2017-03-17T02:10:57.149Z,3.6
2017-03-17T02:11:15.775Z,3.6
2017-03-17T02:11:34.426Z,3.6
2017-03-17T02:11:53.061Z,3.6
2017-03-17T02:12:11.694Z,3.6
2017-03-17T02:12:30.321Z,3.6
2017-03-17T02:12:48.947Z,3.6
2017-03-17T02:13:07.572Z,3.6
2017-03-17T02:13:26.202Z,3.6
2017-03-17T02:13:44.829Z,3.6
2017-03-17T02:14:03.457Z,3.6
2017-03-17T02:14:22.083Z,3.6
2017-03-17T02:14:40.711Z,3.6
2017-03-17T02:14:59.362Z,3.6
2017-03-17T02:15:18.015Z,3.6
2017-03-17T02:15:36.643Z,3.6
2017-03-17T02:15:55.273Z,3.6
2017-03-17T02:16:13.903Z,3.6
2017-03-17T02:16:32.527Z,3.6
2017-03-17T02:16:51.154Z,3.6
2017-03-17T02:17:09.778Z,3.6
2017-03-17T02:17:28.407Z,3.6
2017-03-17T02:17:47.036Z,3.6
2017-03-17T02:18:05.668Z,3.6
2017-03-17T02:18:24.318Z,3.6
2017-03-17T02:18:42.950Z,3.6
2017-03-17T02:19:01.580Z,3.6
2017-03-17T02:19:20.210Z,3.6
2017-03-17T02:19:38.837Z,3.6
2017-03-17T02:19:57.465Z,3.6
2017-03-17T02:20:16.109Z,3.6
2017-03-17T02:20:34.742Z,3.6
2017-03-17T02:20:53.370Z,3.6
2017-03-17T02:21:11.993Z,3.6
2017-03-17T02:21:30.624Z,3.6
2017-03-17T02:21:49.261Z,3.6
2017-03-17T02:22:07.919Z,3.6
2017-03-17T02:22:26.544Z,3.6
2017-03-17T02:22:45.175Z,3.6
2017-03-17T02:23:03.805Z,3.6
2017-03-17T02:23:22.437Z,3.6
2017-03-17T02:23:41.073Z,3.6
2017-03-17T02:23:59.703Z,3.6
2017-03-17T02:24:18.331Z,3.6
2017-03-17T02:24:36.956Z,3.6
2017-03-17T02:24:55.587Z,3.6
2017-03-17T02:25:14.213Z,3.6
2017-03-17T02:25:32.885Z,3.6
2017-03-17T02:25:51.524Z,3.6
2017-03-17T02:26:10.152Z,3.6
2017-03-17T02:26:28.783Z,3.6
2017-03-17T02:26:47.411Z,3.6
2017-03-17T02:27:06.038Z,3.6
2017-03-17T02:27:24.667Z,3.6
2017-03-17T02:27:43.292Z,3.7
2017-03-17T02:28:01.925Z,3.7
2017-03-17T02:28:20.553Z,3.7
2017-03-17T02:28:39.185Z,3.7
2017-03-17T02:28:57.845Z,3.7
2017-03-17T02:29:16.473Z,3.7
2017-03-17T02:29:35.111Z,3.6
2017-03-17T02:29:53.742Z,3.7
2017-03-17T02:30:12.368Z,3.7
2017-03-17T02:30:31.015Z,3.7
2017-03-17T02:30:49.659Z,3.8
2017-03-17T02:31:08.292Z,3.8
2017-03-17T02:31:26.920Z,3.7
2017-03-17T02:31:45.548Z,3.7
2017-03-17T02:32:04.179Z,3.7
2017-03-17T02:32:22.840Z,3.7
2017-03-17T02:32:41.470Z,3.7
2017-03-17T02:33:00.101Z,3.7
2017-03-17T02:33:18.734Z,3.7
2017-03-17T02:33:37.364Z,3.7
2017-03-17T02:33:55.985Z,3.7
2017-03-17T02:34:14.613Z,3.8
2017-03-17T02:34:33.243Z,3.8
2017-03-17T02:34:51.869Z,3.9
2017-03-17T02:35:10.496Z,3.9
2017-03-17T02:35:29.122Z,3.9
2017-03-17T02:35:47.782Z,4
2017-03-17T02:36:06.428Z,4.1
2017-03-17T02:36:25.056Z,4.1
2017-03-17T02:36:43.682Z,4.1
2017-03-17T02:37:02.309Z,4.1
2017-03-17T02:37:20.939Z,4.1
2017-03-17T02:37:39.577Z,4.1
2017-03-17T02:37:58.209Z,4.1
2017-03-17T02:38:16.841Z,4.1
2017-03-17T02:38:35.469Z,4.1
2017-03-17T02:38:54.095Z,4.2
2017-03-17T02:39:12.763Z,4.2
2017-03-17T02:39:31.390Z,4.2
2017-03-17T02:39:50.021Z,4.2
2017-03-17T02:40:08.651Z,4.2
2017-03-17T02:40:27.275Z,4.2
2017-03-17T02:40:45.901Z,4.2
2017-03-17T02:41:04.543Z,4.2
2017-03-17T02:41:23.190Z,4.2
2017-03-17T02:41:41.818Z,4.2
2017-03-17T02:42:00.449Z,4.1
2017-03-17T02:42:19.080Z,4.1
2017-03-17T02:42:37.748Z,4.1
2017-03-17T02:42:56.385Z,4.1
2017-03-17T02:43:15.012Z,4
2017-03-17T02:43:33.639Z,4
2017-03-17T02:43:52.270Z,4
2017-03-17T02:44:10.902Z,3.9
2017-03-17T02:44:29.545Z,3.9
2017-03-17T02:44:48.181Z,3.9
2017-03-17T02:45:06.810Z,3.9
2017-03-17T02:45:25.438Z,3.8
2017-03-17T02:45:44.070Z,3.8
2017-03-17T02:46:02.737Z,3.8
2017-03-17T02:46:21.364Z,3.8
2017-03-17T02:46:40.011Z,3.8
2017-03-17T02:46:58.643Z,3.8
2017-03-17T02:47:17.272Z,3.7
2017-03-17T02:47:35.901Z,3.7
2017-03-17T02:47:54.540Z,3.7
2017-03-17T02:48:13.166Z,3.7
2017-03-17T02:48:31.796Z,3.7
2017-03-17T02:48:50.424Z,3.7
2017-03-17T02:49:09.048Z,3.6
2017-03-17T02:49:27.715Z,3.6
2017-03-17T02:49:46.343Z,3.6
2017-03-17T02:50:04.973Z,3.6
2017-03-17T02:50:23.606Z,3.6
2017-03-17T02:50:42.234Z,3.6
2017-03-17T02:51:00.865Z,3.6
2017-03-17T02:51:19.505Z,3.6
2017-03-17T02:51:38.133Z,3.6
2017-03-17T02:51:56.789Z,3.6
2017-03-17T02:52:15.419Z,3.6
2017-03-17T02:52:34.050Z,3.7
2017-03-17T02:52:52.711Z,3.7
2017-03-17T02:53:11.336Z,3.7
2017-03-17T02:53:29.966Z,3.7
2017-03-17T02:53:48.597Z,3.7
2017-03-17T02:54:07.232Z,3.7
2017-03-17T02:54:25.865Z,3.7
2017-03-17T02:54:44.500Z,3.7
2017-03-17T02:55:03.136Z,3.7
2017-03-17T02:55:21.766Z,3.7
2017-03-17T02:55:40.400Z,3.6
2017-03-17T02:55:59.026Z,3.6
2017-03-17T02:56:17.685Z,3.6
2017-03-17T02:56:36.312Z,3.6
2017-03-17T02:56:54.941Z,3.6
2017-03-17T02:57:13.572Z,3.6
2017-03-17T02:57:32.193Z,3.6
2017-03-17T02:57:50.814Z,3.6
2017-03-17T02:58:09.462Z,3.7
2017-03-17T02:58:28.092Z,3.6
2017-03-17T02:58:46.722Z,3.7
2017-03-17T02:59:05.350Z,3.6
2017-03-17T02:59:23.975Z,3.7
2017-03-17T02:59:42.601Z,3.7
2017-03-17T03:00:01.227Z,3.7
2017-03-17T03:00:19.852Z,3.7
2017-03-17T03:00:38.475Z,3.7
2017-03-17T03:00:57.124Z,3.7
2017-03-17T03:01:15.747Z,3.7
2017-03-17T03:01:34.399Z,3.7
2017-03-17T03:01:53.033Z,3.7
2017-03-17T03:02:11.658Z,3.7
2017-03-17T03:02:30.305Z,3.7
2017-03-17T03:02:48.929Z,3.7
2017-03-17T03:03:07.560Z,3.7
2017-03-17T03:03:26.187Z,3.7
2017-03-17T03:03:44.815Z,3.7
2017-03-17T03:04:03.438Z,3.7
2017-03-17T03:04:22.065Z,3.7
2017-03-17T03:04:40.693Z,3.7
2017-03-17T03:04:59.348Z,3.6
2017-03-17T03:05:17.973Z,3.6
2017-03-17T03:05:36.598Z,3.6
2017-03-17T03:05:55.218Z,3.6
2017-03-17T03:06:13.843Z,3.6
2017-03-17T03:06:32.473Z,3.5
2017-03-17T03:06:51.103Z,3.5
2017-03-17T03:07:09.727Z,3.5
2017-03-17T03:07:28.351Z,3.5
2017-03-17T03:07:46.982Z,3.5
2017-03-17T03:08:05.613Z,3.5
2017-03-17T03:08:24.264Z,3.5
2017-03-17T03:08:42.890Z,3.5
2017-03-17T03:09:01.522Z,3.5
2017-03-17T03:09:20.146Z,3.5
2017-03-17T03:09:38.780Z,3.5
2017-03-17T03:09:57.406Z,3.4
2017-03-17T03:10:16.031Z,3.4
2017-03-17T03:10:34.660Z,3.4
2017-03-17T03:10:53.282Z,3.4
2017-03-17T03:11:11.909Z,3.4
2017-03-17T03:11:30.538Z,3.4
2017-03-17T03:11:49.186Z,3.4
2017-03-17T03:12:07.809Z,3.4
2017-03-17T03:12:26.434Z,3.4
2017-03-17T03:12:45.056Z,3.4
2017-03-17T03:13:03.698Z,3.4
2017-03-17T03:13:22.326Z,3.4
2017-03-17T03:13:40.956Z,3.4
2017-03-17T03:13:59.585Z,3.4
2017-03-17T03:14:18.234Z,3.4
2017-03-17T03:14:36.885Z,3.4
2017-03-17T03:14:55.520Z,3.4
2017-03-17T03:15:14.174Z,3.4
2017-03-17T03:15:32.802Z,3.4
2017-03-17T03:15:51.428Z,3.5
2017-03-17T03:16:10.074Z,3.5
2017-03-17T03:16:28.697Z,3.5
2017-03-17T03:16:47.325Z,3.5
2017-03-17T03:17:05.949Z,3.5
2017-03-17T03:17:24.576Z,3.5
2017-03-17T03:17:43.198Z,3.5
2017-03-17T03:18:01.823Z,3.5
2017-03-17T03:18:20.462Z,3.5
2017-03-17T03:18:39.109Z,3.5
2017-03-17T03:18:57.734Z,3.5
2017-03-17T03:19:16.362Z,3.5
2017-03-17T03:19:34.989Z,3.5
2017-03-17T03:19:53.617Z,3.5
2017-03-17T03:20:12.244Z,3.5
2017-03-17T03:20:30.870Z,3.5
2017-03-17T03:20:49.492Z,3.5
2017-03-17T03:21:08.116Z,3.5
2017-03-17T03:21:26.741Z,3.5
2017-03-17T03:21:45.365Z,3.4
2017-03-17T03:22:04.006Z,3.4
2017-03-17T03:22:22.661Z,3.4
2017-03-17T03:22:41.283Z,3.4
2017-03-17T03:22:59.911Z,3.4
2017-03-17T03:23:18.535Z,3.4
2017-03-17T03:23:37.182Z,3.4
2017-03-17T03:23:55.807Z,3.4
2017-03-17T03:24:14.432Z,3.4
2017-03-17T03:24:33.055Z,3.4
2017-03-17T03:24:51.683Z,3.3
2017-03-17T03:25:10.312Z,3.3
2017-03-17T03:25:28.944Z,3.3
2017-03-17T03:25:47.603Z,3.3
2017-03-17T03:26:06.228Z,3.4
2017-03-17T03:26:24.851Z,3.4
2017-03-17T03:26:43.475Z,3.5
2017-03-17T03:27:02.102Z,3.5
2017-03-17T03:27:20.724Z,3.5
2017-03-17T03:27:39.361Z,3.5
2017-03-17T03:27:57.986Z,3.6
2017-03-17T03:28:16.611Z,3.6
2017-03-17T03:28:35.241Z,3.6
2017-03-17T03:28:53.886Z,3.6
2017-03-17T03:29:12.549Z,3.6
2017-03-17T03:29:31.178Z,3.6
2017-03-17T03:29:49.806Z,3.6
2017-03-17T03:30:08.438Z,3.6
2017-03-17T03:30:27.062Z,3.6
2017-03-17T03:30:45.688Z,3.6
2017-03-17T03:31:04.328Z,3.6
2017-03-17T03:31:22.960Z,3.6
2017-03-17T03:31:41.585Z,3.6
2017-03-17T03:32:00.213Z,3.6
2017-03-17T03:32:18.834Z,3.6
2017-03-17T03:32:37.464Z,3.6
2017-03-17T03:32:56.089Z,3.6
2017-03-17T03:33:14.715Z,3.6
2017-03-17T03:33:33.342Z,3.6
2017-03-17T03:33:51.974Z,3.6
2017-03-17T03:34:10.624Z,3.6
2017-03-17T03:34:29.279Z,3.6
2017-03-17T03:34:47.900Z,3.6
2017-03-17T03:35:06.525Z,3.6
2017-03-17T03:35:25.148Z,3.6
2017-03-17T03:35:43.770Z,3.6
2017-03-17T03:36:02.406Z,3.6
2017-03-17T03:36:21.030Z,3.6
2017-03-17T03:36:39.657Z,3.6
2017-03-17T03:36:58.280Z,3.6
2017-03-17T03:37:16.903Z,3.5
2017-03-17T03:37:35.532Z,3.5
2017-03-17T03:37:54.188Z,3.5
2017-03-17T03:38:12.820Z,3.4
2017-03-17T03:38:31.450Z,3.4
2017-03-17T03:38:50.077Z,3.4
2017-03-17T03:39:08.703Z,3.4
2017-03-17T03:39:27.352Z,3.4
2017-03-17T03:39:45.978Z,3.3
2017-03-17T03:40:04.609Z,3.3
2017-03-17T03:40:23.232Z,3.3
2017-03-17T03:40:41.855Z,3.3
2017-03-17T03:41:00.481Z,3.3
2017-03-17T03:41:19.128Z,3.3
2017-03-17T03:41:37.755Z,3.3
2017-03-17T03:41:56.380Z,3.3
2017-03-17T03:42:15.007Z,3.3
2017-03-17T03:42:33.639Z,3.2
2017-03-17T03:42:52.270Z,3.3
2017-03-17T03:43:10.898Z,3.2
2017-03-17T03:43:29.524Z,3.2
2017-03-17T03:43:48.144Z,3.2
2017-03-17T03:44:06.768Z,3.2
2017-03-17T03:44:25.402Z,3.2
2017-03-17T03:44:44.064Z,3.2
2017-03-17T03:45:02.684Z,3.2
2017-03-17T03:45:21.308Z,3.2
2017-03-17T03:45:39.934Z,3.2
2017-03-17T03:45:58.562Z,3.1
2017-03-17T03:46:17.183Z,3.1
2017-03-17T03:46:35.821Z,3.1
2017-03-17T03:46:54.446Z,3.1
2017-03-17T03:47:13.072Z,3.1
2017-03-17T03:47:31.704Z,3.1
2017-03-17T03:47:50.336Z,3.1
2017-03-17T03:48:08.988Z,3.1
2017-03-17T03:48:27.614Z,3.1
2017-03-17T03:48:46.242Z,3.1
2017-03-17T03:49:04.866Z,3
2017-03-17T03:49:23.490Z,3
2017-03-17T03:49:42.114Z,3
2017-03-17T03:50:00.760Z,3.1
2017-03-17T03:50:19.390Z,3.1
2017-03-17T03:50:38.013Z,3.1
2017-03-17T03:50:56.644Z,3.1
2017-03-17T03:51:15.272Z,3.1
2017-03-17T03:51:33.904Z,3.1
2017-03-17T03:51:52.545Z,3.1
2017-03-17T03:52:11.174Z,3.1
2017-03-17T03:52:29.798Z,3.1
2017-03-17T03:52:48.424Z,3.1
2017-03-17T03:53:07.049Z,3.1
2017-03-17T03:53:25.673Z,3.1
2017-03-17T03:53:44.292Z,3.1
2017-03-17T03:54:02.913Z,3
2017-03-17T03:54:21.542Z,3
2017-03-17T03:54:40.169Z,3
2017-03-17T03:54:58.794Z,3
2017-03-17T03:55:17.459Z,3
2017-03-17T03:55:36.083Z,3
2017-03-17T03:55:54.709Z,3
2017-03-17T03:56:13.332Z,3
2017-03-17T03:56:31.955Z,3
2017-03-17T03:56:50.582Z,3
2017-03-17T03:57:09.216Z,3
2017-03-17T03:57:27.834Z,3
2017-03-17T03:57:46.464Z,3
2017-03-17T03:58:05.092Z,3
2017-03-17T03:58:23.716Z,3
2017-03-17T03:58:42.343Z,3
2017-03-17T03:59:00.968Z,3
2017-03-17T03:59:19.593Z,3
2017-03-17T03:59:38.223Z,3
2017-03-17T03:59:56.850Z,3
2017-03-17T04:00:15.478Z,3
2017-03-17T04:00:34.141Z,3
2017-03-17T04:00:52.763Z,3
2017-03-17T04:01:11.394Z,3
2017-03-17T04:01:30.014Z,3
2017-03-17T04:01:48.658Z,3
2017-03-17T04:02:07.289Z,3
2017-03-17T04:02:25.913Z,3
2017-03-17T04:02:44.542Z,3
2017-03-17T04:03:03.175Z,3
2017-03-17T04:03:21.803Z,3
2017-03-17T04:03:40.428Z,3
2017-03-17T04:03:59.082Z,3
2017-03-17T04:04:17.707Z,3
2017-03-17T04:04:36.331Z,3
2017-03-17T04:04:54.960Z,3
2017-03-17T04:05:13.585Z,3
2017-03-17T04:05:32.206Z,3
2017-03-17T04:05:50.838Z,3.1
2017-03-17T04:06:09.462Z,3.1
2017-03-17T04:06:28.088Z,3.1
2017-03-17T04:06:46.717Z,3.1
2017-03-17T04:07:05.345Z,3.1
2017-03-17T04:07:23.996Z,3
2017-03-17T04:07:42.630Z,3
2017-03-17T04:08:01.255Z,3
2017-03-17T04:08:19.879Z,3
2017-03-17T04:08:38.498Z,3
2017-03-17T04:08:57.123Z,3
2017-03-17T04:09:15.754Z,3
2017-03-17T04:09:34.377Z,3
2017-03-17T04:09:53.003Z,3
2017-03-17T04:10:11.629Z,3
2017-03-17T04:10:30.255Z,3.1
2017-03-17T04:10:48.891Z,3.1
2017-03-17T04:11:07.536Z,3.1
2017-03-17T04:11:26.163Z,3.1
2017-03-17T04:11:44.789Z,3.1
2017-03-17T04:12:03.417Z,3.1
2017-03-17T04:12:22.041Z,3.1
2017-03-17T04:12:40.663Z,3.1
2017-03-17T04:12:59.290Z,3.1
2017-03-17T04:13:17.915Z,3.1
2017-03-17T04:13:36.543Z,3.1
2017-03-17T04:13:55.169Z,3.1
2017-03-17T04:14:13.803Z,3.2
2017-03-17T04:14:32.451Z,3.1
2017-03-17T04:14:51.077Z,3.2
2017-03-17T04:15:09.701Z,3.2
2017-03-17T04:15:28.325Z,3.2
2017-03-17T04:15:46.956Z,3.2
2017-03-17T04:16:05.583Z,3.2
2017-03-17T04:16:24.235Z,3.2
2017-03-17T04:16:42.861Z,3.2
2017-03-17T04:17:01.498Z,3.2
2017-03-17T04:17:20.121Z,3.1
2017-03-17T04:17:38.757Z,3.1
2017-03-17T04:17:57.424Z,3.1